sensor_id;sensor_type;location;lat;lon;timestamp;P1;durP1;ratioP1;P2;durP2;ratioP2
70487;SDS011;57976;48.174;16.370;2022-12-18T00:01:42;10.80;;;4.30;;
70487;SDS011;57976;48.174;16.370;2022-12-18T00:03:45;12.00;;;4.40;;
70487;SDS011;57976;48.174;16.370;2022-12-18T00:05:49;10.00;;;4.20;;
70487;SDS011;57976;48.174;16.370;2022-12-18T00:07:52;9.80;;;3.90;;
70487;SDS011;57976;48.174;16.370;2022-12-18T00:09:55;10.90;;;4.50;;
70487;SDS011;57976;48.174;16.370;2022-12-18T00:11:58;10.80;;;4.10;;
70487;SDS011;57976;48.174;16.370;2022-12-18T00:14:00;10.60;;;4.50;;
70487;SDS011;57976;48.174;16.370;2022-12-18T00:16:04;10.10;;;4.30;;
70487;SDS011;57976;48.174;16.370;2022-12-18T00:18:09;10.10;;;4.40;;
70487;SDS011;57976;48.174;16.370;2022-12-18T00:20:16;11.30;;;4.70;;
70487;SDS011;57976;48.174;16.370;2022-12-18T00:22:18;10.80;;;4.50;;
70487;SDS011;57976;48.174;16.370;2022-12-18T00:24:21;10.70;;;4.30;;
70487;SDS011;57976;48.174;16.370;2022-12-18T00:26:24;10.20;;;4.60;;
70487;SDS011;57976;48.174;16.370;2022-12-18T00:28:30;12.80;;;4.50;;
70487;SDS011;57976;48.174;16.370;2022-12-18T00:30:33;12.70;;;4.90;;
70487;SDS011;57976;48.174;16.370;2022-12-18T00:32:36;9.30;;;3.40;;
70487;SDS011;57976;48.174;16.370;2022-12-18T00:34:38;8.70;;;3.50;;
70487;SDS011;57976;48.174;16.370;2022-12-18T00:36:41;9.70;;;3.70;;
70487;SDS011;57976;48.174;16.370;2022-12-18T00:38:44;11.00;;;5.70;;
70487;SDS011;57976;48.174;16.370;2022-12-18T00:40:48;9.30;;;3.70;;
70487;SDS011;57976;48.174;16.370;2022-12-18T00:42:50;9.00;;;3.20;;
70487;SDS011;57976;48.174;16.370;2022-12-18T00:44:53;9.20;;;3.60;;
70487;SDS011;57976;48.174;16.370;2022-12-18T00:46:56;9.30;;;3.60;;
70487;SDS011;57976;48.174;16.370;2022-12-18T00:48:59;11.20;;;4.00;;
70487;SDS011;57976;48.174;16.370;2022-12-18T00:51:02;11.20;;;3.90;;
70487;SDS011;57976;48.174;16.370;2022-12-18T00:53:04;9.70;;;3.90;;
70487;SDS011;57976;48.174;16.370;2022-12-18T00:55:08;9.60;;;3.80;;
70487;SDS011;57976;48.174;16.370;2022-12-18T00:57:11;9.10;;;3.50;;
70487;SDS011;57976;48.174;16.370;2022-12-18T00:59:13;11.10;;;4.40;;
70487;SDS011;57976;48.174;16.370;2022-12-18T01:01:17;9.60;;;3.60;;
70487;SDS011;57976;48.174;16.370;2022-12-18T01:03:20;12.10;;;4.50;;
70487;SDS011;57976;48.174;16.370;2022-12-18T01:05:23;10.40;;;4.20;;
70487;SDS011;57976;48.174;16.370;2022-12-18T01:07:27;9.60;;;3.90;;
70487;SDS011;57976;48.174;16.370;2022-12-18T01:09:30;11.20;;;4.60;;
70487;SDS011;57976;48.174;16.370;2022-12-18T01:11:33;11.60;;;4.70;;
70487;SDS011;57976;48.174;16.370;2022-12-18T01:13:35;11.00;;;4.50;;
70487;SDS011;57976;48.174;16.370;2022-12-18T01:15:39;12.30;;;5.00;;
70487;SDS011;57976;48.174;16.370;2022-12-18T01:17:48;11.80;;;4.60;;
70487;SDS011;57976;48.174;16.370;2022-12-18T01:19:54;11.90;;;5.10;;
70487;SDS011;57976;48.174;16.370;2022-12-18T01:21:57;12.90;;;5.00;;
70487;SDS011;57976;48.174;16.370;2022-12-18T01:24:00;13.70;;;5.70;;
70487;SDS011;57976;48.174;16.370;2022-12-18T01:26:05;12.70;;;4.90;;
70487;SDS011;57976;48.174;16.370;2022-12-18T01:28:09;14.20;;;5.20;;
70487;SDS011;57976;48.174;16.370;2022-12-18T01:30:12;12.20;;;5.30;;
70487;SDS011;57976;48.174;16.370;2022-12-18T01:32:15;14.10;;;5.80;;
70487;SDS011;57976;48.174;16.370;2022-12-18T01:34:18;14.00;;;5.20;;
70487;SDS011;57976;48.174;16.370;2022-12-18T01:36:21;15.70;;;6.40;;
70487;SDS011;57976;48.174;16.370;2022-12-18T01:38:25;15.70;;;6.00;;
70487;SDS011;57976;48.174;16.370;2022-12-18T01:40:29;14.00;;;5.90;;
70487;SDS011;57976;48.174;16.370;2022-12-18T01:42:32;15.40;;;6.00;;
70487;SDS011;57976;48.174;16.370;2022-12-18T01:47:08;14.70;;;6.00;;
70487;SDS011;57976;48.174;16.370;2022-12-18T01:49:14;16.50;;;6.60;;
70487;SDS011;57976;48.174;16.370;2022-12-18T01:51:17;19.50;;;7.00;;
70487;SDS011;57976;48.174;16.370;2022-12-18T01:53:21;17.90;;;7.10;;
70487;SDS011;57976;48.174;16.370;2022-12-18T01:55:26;18.50;;;7.10;;
70487;SDS011;57976;48.174;16.370;2022-12-18T01:57:32;17.40;;;6.40;;
70487;SDS011;57976;48.174;16.370;2022-12-18T01:59:36;18.30;;;7.70;;
70487;SDS011;57976;48.174;16.370;2022-12-18T02:01:42;15.60;;;6.60;;
70487;SDS011;57976;48.174;16.370;2022-12-18T02:03:45;17.40;;;7.30;;
70487;SDS011;57976;48.174;16.370;2022-12-18T02:05:48;16.20;;;6.80;;
70487;SDS011;57976;48.174;16.370;2022-12-18T02:08:03;18.20;;;6.80;;
70487;SDS011;57976;48.174;16.370;2022-12-18T02:10:12;17.10;;;7.30;;
70487;SDS011;57976;48.174;16.370;2022-12-18T02:12:21;18.10;;;7.50;;
70487;SDS011;57976;48.174;16.370;2022-12-18T02:14:28;18.50;;;7.60;;
70487;SDS011;57976;48.174;16.370;2022-12-18T02:16:42;16.50;;;6.60;;
70487;SDS011;57976;48.174;16.370;2022-12-18T02:18:51;18.30;;;7.50;;
70487;SDS011;57976;48.174;16.370;2022-12-18T02:21:00;17.40;;;6.60;;
70487;SDS011;57976;48.174;16.370;2022-12-18T02:23:16;16.20;;;6.80;;
70487;SDS011;57976;48.174;16.370;2022-12-18T02:25:35;18.10;;;7.90;;
70487;SDS011;57976;48.174;16.370;2022-12-18T02:27:49;19.70;;;7.20;;
70487;SDS011;57976;48.174;16.370;2022-12-18T02:29:55;19.50;;;7.60;;
70487;SDS011;57976;48.174;16.370;2022-12-18T02:32:02;17.90;;;7.50;;
70487;SDS011;57976;48.174;16.370;2022-12-18T02:34:08;20.00;;;7.50;;
70487;SDS011;57976;48.174;16.370;2022-12-18T02:36:13;18.60;;;7.80;;
70487;SDS011;57976;48.174;16.370;2022-12-18T02:38:17;19.20;;;7.40;;
70487;SDS011;57976;48.174;16.370;2022-12-18T02:40:21;17.70;;;6.50;;
70487;SDS011;57976;48.174;16.370;2022-12-18T02:42:26;20.20;;;6.70;;
70487;SDS011;57976;48.174;16.370;2022-12-18T02:44:30;20.40;;;7.40;;
70487;SDS011;57976;48.174;16.370;2022-12-18T02:46:33;19.30;;;7.50;;
70487;SDS011;57976;48.174;16.370;2022-12-18T02:48:43;18.70;;;7.70;;
70487;SDS011;57976;48.174;16.370;2022-12-18T02:50:50;18.50;;;7.20;;
70487;SDS011;57976;48.174;16.370;2022-12-18T02:53:03;18.20;;;7.30;;
70487;SDS011;57976;48.174;16.370;2022-12-18T02:55:17;17.30;;;7.00;;
70487;SDS011;57976;48.174;16.370;2022-12-18T02:57:33;19.60;;;7.30;;
70487;SDS011;57976;48.174;16.370;2022-12-18T02:59:40;17.90;;;7.20;;
70487;SDS011;57976;48.174;16.370;2022-12-18T03:01:50;20.00;;;8.00;;
70487;SDS011;57976;48.174;16.370;2022-12-18T03:03:59;20.20;;;7.90;;
70487;SDS011;57976;48.174;16.370;2022-12-18T03:06:07;18.30;;;7.20;;
70487;SDS011;57976;48.174;16.370;2022-12-18T03:08:14;19.90;;;7.70;;
70487;SDS011;57976;48.174;16.370;2022-12-18T03:10:21;18.10;;;7.20;;
70487;SDS011;57976;48.174;16.370;2022-12-18T03:12:30;17.90;;;7.20;;
70487;SDS011;57976;48.174;16.370;2022-12-18T03:14:35;18.60;;;7.70;;
70487;SDS011;57976;48.174;16.370;2022-12-18T03:16:42;17.80;;;7.80;;
70487;SDS011;57976;48.174;16.370;2022-12-18T03:18:47;20.00;;;7.60;;
70487;SDS011;57976;48.174;16.370;2022-12-18T03:20:53;17.60;;;7.50;;
70487;SDS011;57976;48.174;16.370;2022-12-18T03:23:02;19.30;;;7.70;;
70487;SDS011;57976;48.174;16.370;2022-12-18T03:25:10;19.30;;;7.30;;
70487;SDS011;57976;48.174;16.370;2022-12-18T03:27:16;20.60;;;7.80;;
70487;SDS011;57976;48.174;16.370;2022-12-18T03:29:24;20.50;;;7.60;;
70487;SDS011;57976;48.174;16.370;2022-12-18T03:31:32;19.60;;;8.00;;
70487;SDS011;57976;48.174;16.370;2022-12-18T03:33:36;22.20;;;8.10;;
70487;SDS011;57976;48.174;16.370;2022-12-18T03:35:44;20.00;;;7.90;;
70487;SDS011;57976;48.174;16.370;2022-12-18T03:37:47;18.80;;;7.60;;
70487;SDS011;57976;48.174;16.370;2022-12-18T03:39:50;21.40;;;8.80;;
70487;SDS011;57976;48.174;16.370;2022-12-18T03:41:55;18.90;;;7.40;;
70487;SDS011;57976;48.174;16.370;2022-12-18T03:44:12;22.30;;;8.40;;
70487;SDS011;57976;48.174;16.370;2022-12-18T03:46:24;19.20;;;7.70;;
70487;SDS011;57976;48.174;16.370;2022-12-18T03:48:32;20.20;;;8.00;;
70487;SDS011;57976;48.174;16.370;2022-12-18T03:50:44;17.50;;;7.40;;
70487;SDS011;57976;48.174;16.370;2022-12-18T03:52:54;21.10;;;7.80;;
70487;SDS011;57976;48.174;16.370;2022-12-18T03:55:02;56.00;;;10.90;;
70487;SDS011;57976;48.174;16.370;2022-12-18T03:57:09;36.80;;;8.80;;
70487;SDS011;57976;48.174;16.370;2022-12-18T03:59:15;26.50;;;8.50;;
70487;SDS011;57976;48.174;16.370;2022-12-18T04:01:22;23.90;;;7.50;;
70487;SDS011;57976;48.174;16.370;2022-12-18T04:03:27;19.30;;;7.30;;
70487;SDS011;57976;48.174;16.370;2022-12-18T04:05:32;22.00;;;8.60;;
70487;SDS011;57976;48.174;16.370;2022-12-18T04:07:37;20.20;;;7.70;;
70487;SDS011;57976;48.174;16.370;2022-12-18T04:09:43;20.10;;;8.30;;
70487;SDS011;57976;48.174;16.370;2022-12-18T04:11:50;20.80;;;8.00;;
70487;SDS011;57976;48.174;16.370;2022-12-18T04:13:55;20.80;;;7.90;;
70487;SDS011;57976;48.174;16.370;2022-12-18T04:15:58;18.40;;;7.10;;
70487;SDS011;57976;48.174;16.370;2022-12-18T04:18:01;20.80;;;8.00;;
70487;SDS011;57976;48.174;16.370;2022-12-18T04:20:10;20.00;;;7.90;;
70487;SDS011;57976;48.174;16.370;2022-12-18T04:22:13;19.40;;;8.00;;
70487;SDS011;57976;48.174;16.370;2022-12-18T04:24:18;20.30;;;7.90;;
70487;SDS011;57976;48.174;16.370;2022-12-18T04:26:28;20.90;;;8.60;;
70487;SDS011;57976;48.174;16.370;2022-12-18T04:28:52;22.20;;;8.50;;
70487;SDS011;57976;48.174;16.370;2022-12-18T04:30:55;21.90;;;8.90;;
70487;SDS011;57976;48.174;16.370;2022-12-18T04:32:58;21.20;;;8.90;;
70487;SDS011;57976;48.174;16.370;2022-12-18T04:35:01;23.00;;;8.80;;
70487;SDS011;57976;48.174;16.370;2022-12-18T04:37:04;20.30;;;8.70;;
70487;SDS011;57976;48.174;16.370;2022-12-18T04:39:07;20.20;;;8.30;;
70487;SDS011;57976;48.174;16.370;2022-12-18T04:41:11;21.10;;;8.40;;
70487;SDS011;57976;48.174;16.370;2022-12-18T04:43:14;20.70;;;8.90;;
70487;SDS011;57976;48.174;16.370;2022-12-18T04:45:17;19.90;;;8.80;;
70487;SDS011;57976;48.174;16.370;2022-12-18T04:47:19;20.50;;;8.60;;
70487;SDS011;57976;48.174;16.370;2022-12-18T04:49:22;20.00;;;7.80;;
70487;SDS011;57976;48.174;16.370;2022-12-18T04:51:25;21.60;;;8.20;;
70487;SDS011;57976;48.174;16.370;2022-12-18T04:53:28;21.20;;;7.70;;
70487;SDS011;57976;48.174;16.370;2022-12-18T04:55:30;20.80;;;8.50;;
70487;SDS011;57976;48.174;16.370;2022-12-18T04:57:33;20.60;;;8.30;;
70487;SDS011;57976;48.174;16.370;2022-12-18T04:59:36;20.20;;;8.50;;
70487;SDS011;57976;48.174;16.370;2022-12-18T05:01:41;21.70;;;8.50;;
70487;SDS011;57976;48.174;16.370;2022-12-18T05:03:45;19.50;;;8.10;;
70487;SDS011;57976;48.174;16.370;2022-12-18T05:05:49;19.40;;;8.30;;
70487;SDS011;57976;48.174;16.370;2022-12-18T05:07:52;23.00;;;9.20;;
70487;SDS011;57976;48.174;16.370;2022-12-18T05:09:55;20.80;;;8.20;;
70487;SDS011;57976;48.174;16.370;2022-12-18T05:11:58;21.70;;;8.70;;
70487;SDS011;57976;48.174;16.370;2022-12-18T05:14:03;23.00;;;8.90;;
70487;SDS011;57976;48.174;16.370;2022-12-18T05:16:07;22.70;;;9.30;;
70487;SDS011;57976;48.174;16.370;2022-12-18T05:18:10;21.60;;;9.10;;
70487;SDS011;57976;48.174;16.370;2022-12-18T05:20:12;19.70;;;8.60;;
70487;SDS011;57976;48.174;16.370;2022-12-18T05:22:15;20.40;;;8.60;;
70487;SDS011;57976;48.174;16.370;2022-12-18T05:24:18;20.30;;;8.40;;
70487;SDS011;57976;48.174;16.370;2022-12-18T05:26:21;20.40;;;8.90;;
70487;SDS011;57976;48.174;16.370;2022-12-18T05:28:24;19.50;;;8.60;;
70487;SDS011;57976;48.174;16.370;2022-12-18T05:30:28;20.70;;;8.30;;
70487;SDS011;57976;48.174;16.370;2022-12-18T05:32:31;19.40;;;8.60;;
70487;SDS011;57976;48.174;16.370;2022-12-18T05:34:33;20.60;;;8.70;;
70487;SDS011;57976;48.174;16.370;2022-12-18T05:36:36;22.10;;;8.40;;
70487;SDS011;57976;48.174;16.370;2022-12-18T05:38:39;19.10;;;8.30;;
70487;SDS011;57976;48.174;16.370;2022-12-18T05:40:42;21.60;;;9.20;;
70487;SDS011;57976;48.174;16.370;2022-12-18T05:42:45;19.60;;;8.10;;
70487;SDS011;57976;48.174;16.370;2022-12-18T05:44:48;20.00;;;7.80;;
70487;SDS011;57976;48.174;16.370;2022-12-18T05:46:50;18.60;;;7.80;;
70487;SDS011;57976;48.174;16.370;2022-12-18T05:48:53;19.90;;;7.70;;
70487;SDS011;57976;48.174;16.370;2022-12-18T05:50:56;19.40;;;7.90;;
70487;SDS011;57976;48.174;16.370;2022-12-18T05:53:06;20.70;;;8.10;;
70487;SDS011;57976;48.174;16.370;2022-12-18T05:55:09;18.20;;;7.80;;
70487;SDS011;57976;48.174;16.370;2022-12-18T05:57:12;19.50;;;8.60;;
70487;SDS011;57976;48.174;16.370;2022-12-18T05:59:14;19.70;;;7.60;;
70487;SDS011;57976;48.174;16.370;2022-12-18T06:01:18;19.60;;;7.80;;
70487;SDS011;57976;48.174;16.370;2022-12-18T06:03:22;20.00;;;8.50;;
70487;SDS011;57976;48.174;16.370;2022-12-18T06:05:34;18.80;;;8.10;;
70487;SDS011;57976;48.174;16.370;2022-12-18T06:07:38;19.30;;;7.60;;
70487;SDS011;57976;48.174;16.370;2022-12-18T06:09:40;19.10;;;7.80;;
70487;SDS011;57976;48.174;16.370;2022-12-18T06:11:43;19.60;;;7.70;;
70487;SDS011;57976;48.174;16.370;2022-12-18T06:13:46;19.80;;;8.10;;
70487;SDS011;57976;48.174;16.370;2022-12-18T06:15:57;17.30;;;7.90;;
70487;SDS011;57976;48.174;16.370;2022-12-18T06:18:03;21.00;;;7.80;;
70487;SDS011;57976;48.174;16.370;2022-12-18T06:20:06;19.10;;;8.10;;
70487;SDS011;57976;48.174;16.370;2022-12-18T06:22:10;17.20;;;7.60;;
70487;SDS011;57976;48.174;16.370;2022-12-18T06:24:12;16.30;;;7.40;;
70487;SDS011;57976;48.174;16.370;2022-12-18T06:26:15;17.90;;;8.20;;
70487;SDS011;57976;48.174;16.370;2022-12-18T06:28:18;20.20;;;7.80;;
70487;SDS011;57976;48.174;16.370;2022-12-18T06:30:22;18.20;;;7.20;;
70487;SDS011;57976;48.174;16.370;2022-12-18T06:32:26;19.00;;;7.30;;
70487;SDS011;57976;48.174;16.370;2022-12-18T06:34:31;22.40;;;8.20;;
70487;SDS011;57976;48.174;16.370;2022-12-18T06:36:34;18.30;;;7.40;;
70487;SDS011;57976;48.174;16.370;2022-12-18T06:38:40;38.50;;;16.00;;
70487;SDS011;57976;48.174;16.370;2022-12-18T06:40:44;21.10;;;8.30;;
70487;SDS011;57976;48.174;16.370;2022-12-18T06:42:47;21.40;;;8.70;;
70487;SDS011;57976;48.174;16.370;2022-12-18T06:44:49;20.50;;;7.70;;
70487;SDS011;57976;48.174;16.370;2022-12-18T06:46:52;21.10;;;7.40;;
70487;SDS011;57976;48.174;16.370;2022-12-18T06:48:55;20.10;;;8.00;;
70487;SDS011;57976;48.174;16.370;2022-12-18T06:50:58;19.80;;;7.80;;
70487;SDS011;57976;48.174;16.370;2022-12-18T06:53:00;18.50;;;7.60;;
70487;SDS011;57976;48.174;16.370;2022-12-18T06:55:04;24.90;;;8.50;;
70487;SDS011;57976;48.174;16.370;2022-12-18T06:57:09;20.10;;;8.00;;
70487;SDS011;57976;48.174;16.370;2022-12-18T06:59:12;19.70;;;8.40;;
70487;SDS011;57976;48.174;16.370;2022-12-18T07:01:15;25.50;;;9.10;;
70487;SDS011;57976;48.174;16.370;2022-12-18T07:03:18;23.90;;;9.30;;
70487;SDS011;57976;48.174;16.370;2022-12-18T07:05:21;29.90;;;9.40;;
70487;SDS011;57976;48.174;16.370;2022-12-18T07:07:23;25.80;;;8.80;;
70487;SDS011;57976;48.174;16.370;2022-12-18T07:09:26;29.30;;;8.70;;
70487;SDS011;57976;48.174;16.370;2022-12-18T07:11:32;27.40;;;9.30;;
70487;SDS011;57976;48.174;16.370;2022-12-18T07:13:35;26.50;;;8.10;;
70487;SDS011;57976;48.174;16.370;2022-12-18T07:15:38;25.60;;;9.00;;
70487;SDS011;57976;48.174;16.370;2022-12-18T07:17:41;23.30;;;8.30;;
70487;SDS011;57976;48.174;16.370;2022-12-18T07:19:44;23.60;;;9.40;;
70487;SDS011;57976;48.174;16.370;2022-12-18T07:21:46;23.60;;;8.70;;
70487;SDS011;57976;48.174;16.370;2022-12-18T07:23:51;23.10;;;9.10;;
70487;SDS011;57976;48.174;16.370;2022-12-18T07:25:53;24.60;;;8.80;;
70487;SDS011;57976;48.174;16.370;2022-12-18T07:27:56;23.60;;;8.70;;
70487;SDS011;57976;48.174;16.370;2022-12-18T07:29:59;24.60;;;9.00;;
70487;SDS011;57976;48.174;16.370;2022-12-18T07:32:02;25.80;;;9.90;;
70487;SDS011;57976;48.174;16.370;2022-12-18T07:34:09;22.50;;;9.80;;
70487;SDS011;57976;48.174;16.370;2022-12-18T07:36:12;27.30;;;10.20;;
70487;SDS011;57976;48.174;16.370;2022-12-18T07:38:15;24.40;;;10.60;;
70487;SDS011;57976;48.174;16.370;2022-12-18T07:40:18;28.80;;;10.60;;
70487;SDS011;57976;48.174;16.370;2022-12-18T07:42:21;27.50;;;10.70;;
70487;SDS011;57976;48.174;16.370;2022-12-18T07:44:24;28.30;;;10.80;;
70487;SDS011;57976;48.174;16.370;2022-12-18T07:46:27;29.40;;;11.50;;
70487;SDS011;57976;48.174;16.370;2022-12-18T07:48:29;28.90;;;11.70;;
70487;SDS011;57976;48.174;16.370;2022-12-18T07:50:32;27.20;;;10.90;;
70487;SDS011;57976;48.174;16.370;2022-12-18T07:52:35;26.40;;;11.00;;
70487;SDS011;57976;48.174;16.370;2022-12-18T07:54:38;29.10;;;12.10;;
70487;SDS011;57976;48.174;16.370;2022-12-18T07:56:41;39.80;;;15.10;;
70487;SDS011;57976;48.174;16.370;2022-12-18T07:58:44;36.50;;;15.30;;
70487;SDS011;57976;48.174;16.370;2022-12-18T08:00:49;33.80;;;13.70;;
70487;SDS011;57976;48.174;16.370;2022-12-18T08:02:52;30.30;;;12.70;;
70487;SDS011;57976;48.174;16.370;2022-12-18T08:04:55;26.40;;;10.40;;
70487;SDS011;57976;48.174;16.370;2022-12-18T08:06:57;27.30;;;11.30;;
70487;SDS011;57976;48.174;16.370;2022-12-18T08:09:00;25.80;;;10.50;;
70487;SDS011;57976;48.174;16.370;2022-12-18T08:11:03;27.70;;;10.50;;
70487;SDS011;57976;48.174;16.370;2022-12-18T08:13:06;25.80;;;10.80;;
70487;SDS011;57976;48.174;16.370;2022-12-18T08:15:09;29.40;;;11.40;;
70487;SDS011;57976;48.174;16.370;2022-12-18T08:17:12;29.20;;;12.10;;
70487;SDS011;57976;48.174;16.370;2022-12-18T08:19:15;27.60;;;11.20;;
70487;SDS011;57976;48.174;16.370;2022-12-18T08:21:19;29.00;;;11.30;;
70487;SDS011;57976;48.174;16.370;2022-12-18T08:23:23;24.00;;;10.40;;
70487;SDS011;57976;48.174;16.370;2022-12-18T08:25:30;29.70;;;11.10;;
70487;SDS011;57976;48.174;16.370;2022-12-18T08:27:32;26.80;;;11.50;;
70487;SDS011;57976;48.174;16.370;2022-12-18T08:29:35;24.90;;;11.30;;
70487;SDS011;57976;48.174;16.370;2022-12-18T08:31:38;26.60;;;10.50;;
70487;SDS011;57976;48.174;16.370;2022-12-18T08:33:41;27.90;;;11.40;;
70487;SDS011;57976;48.174;16.370;2022-12-18T08:35:45;28.20;;;11.50;;
70487;SDS011;57976;48.174;16.370;2022-12-18T08:37:48;28.00;;;11.30;;
70487;SDS011;57976;48.174;16.370;2022-12-18T08:39:51;27.10;;;10.70;;
70487;SDS011;57976;48.174;16.370;2022-12-18T08:41:54;28.50;;;11.70;;
70487;SDS011;57976;48.174;16.370;2022-12-18T08:43:56;26.60;;;11.00;;
70487;SDS011;57976;48.174;16.370;2022-12-18T08:45:59;29.20;;;12.60;;
70487;SDS011;57976;48.174;16.370;2022-12-18T08:48:02;24.50;;;11.00;;
70487;SDS011;57976;48.174;16.370;2022-12-18T08:50:05;29.80;;;12.90;;
70487;SDS011;57976;48.174;16.370;2022-12-18T08:52:08;29.70;;;11.00;;
70487;SDS011;57976;48.174;16.370;2022-12-18T08:54:11;28.40;;;12.10;;
70487;SDS011;57976;48.174;16.370;2022-12-18T08:56:14;28.50;;;11.90;;
70487;SDS011;57976;48.174;16.370;2022-12-18T08:58:17;29.70;;;12.30;;
70487;SDS011;57976;48.174;16.370;2022-12-18T09:00:21;27.80;;;11.30;;
70487;SDS011;57976;48.174;16.370;2022-12-18T09:02:23;28.50;;;12.00;;
70487;SDS011;57976;48.174;16.370;2022-12-18T09:04:26;29.70;;;11.50;;
70487;SDS011;57976;48.174;16.370;2022-12-18T09:06:29;31.40;;;12.30;;
70487;SDS011;57976;48.174;16.370;2022-12-18T09:08:32;33.40;;;13.50;;
70487;SDS011;57976;48.174;16.370;2022-12-18T09:10:41;32.80;;;13.70;;
70487;SDS011;57976;48.174;16.370;2022-12-18T09:12:45;31.10;;;13.00;;
70487;SDS011;57976;48.174;16.370;2022-12-18T09:14:49;33.10;;;12.70;;
70487;SDS011;57976;48.174;16.370;2022-12-18T09:16:51;33.40;;;12.70;;
70487;SDS011;57976;48.174;16.370;2022-12-18T09:18:54;31.70;;;14.50;;
70487;SDS011;57976;48.174;16.370;2022-12-18T09:20:58;32.40;;;13.50;;
70487;SDS011;57976;48.174;16.370;2022-12-18T09:23:00;31.10;;;12.70;;
70487;SDS011;57976;48.174;16.370;2022-12-18T09:25:04;36.10;;;13.30;;
70487;SDS011;57976;48.174;16.370;2022-12-18T09:27:07;33.30;;;13.90;;
70487;SDS011;57976;48.174;16.370;2022-12-18T09:29:09;31.20;;;13.50;;
70487;SDS011;57976;48.174;16.370;2022-12-18T09:31:12;30.40;;;14.10;;
70487;SDS011;57976;48.174;16.370;2022-12-18T09:33:15;30.60;;;12.90;;
70487;SDS011;57976;48.174;16.370;2022-12-18T09:35:18;37.10;;;14.30;;
70487;SDS011;57976;48.174;16.370;2022-12-18T09:37:21;33.20;;;13.50;;
70487;SDS011;57976;48.174;16.370;2022-12-18T09:39:24;34.70;;;15.30;;
70487;SDS011;57976;48.174;16.370;2022-12-18T09:43:46;31.60;;;14.40;;
70487;SDS011;57976;48.174;16.370;2022-12-18T09:45:53;35.70;;;14.30;;
70487;SDS011;57976;48.174;16.370;2022-12-18T09:48:00;32.00;;;13.70;;
70487;SDS011;57976;48.174;16.370;2022-12-18T09:50:13;31.10;;;13.60;;
70487;SDS011;57976;48.174;16.370;2022-12-18T09:52:26;31.70;;;13.10;;
70487;SDS011;57976;48.174;16.370;2022-12-18T09:54:35;30.20;;;12.90;;
70487;SDS011;57976;48.174;16.370;2022-12-18T09:56:43;32.90;;;13.50;;
70487;SDS011;57976;48.174;16.370;2022-12-18T09:58:47;30.10;;;12.80;;
70487;SDS011;57976;48.174;16.370;2022-12-18T10:00:54;33.20;;;13.80;;
70487;SDS011;57976;48.174;16.370;2022-12-18T10:02:59;33.10;;;12.90;;
70487;SDS011;57976;48.174;16.370;2022-12-18T10:05:07;29.00;;;12.80;;
70487;SDS011;57976;48.174;16.370;2022-12-18T10:07:14;29.10;;;12.00;;
70487;SDS011;57976;48.174;16.370;2022-12-18T10:09:28;32.10;;;12.90;;
70487;SDS011;57976;48.174;16.370;2022-12-18T10:11:40;28.30;;;11.70;;
70487;SDS011;57976;48.174;16.370;2022-12-18T10:13:51;29.70;;;12.70;;
70487;SDS011;57976;48.174;16.370;2022-12-18T10:16:01;29.70;;;12.40;;
70487;SDS011;57976;48.174;16.370;2022-12-18T10:18:17;32.40;;;12.40;;
70487;SDS011;57976;48.174;16.370;2022-12-18T10:20:32;39.20;;;15.00;;
70487;SDS011;57976;48.174;16.370;2022-12-18T10:22:43;31.30;;;12.90;;
70487;SDS011;57976;48.174;16.370;2022-12-18T10:24:55;26.30;;;10.90;;
70487;SDS011;57976;48.174;16.370;2022-12-18T10:27:08;32.10;;;12.10;;
70487;SDS011;57976;48.174;16.370;2022-12-18T10:29:15;28.60;;;10.70;;
70487;SDS011;57976;48.174;16.370;2022-12-18T10:31:19;26.70;;;10.00;;
70487;SDS011;57976;48.174;16.370;2022-12-18T10:33:28;25.10;;;9.70;;
70487;SDS011;57976;48.174;16.370;2022-12-18T10:35:33;29.60;;;11.20;;
70487;SDS011;57976;48.174;16.370;2022-12-18T10:37:37;25.70;;;10.70;;
70487;SDS011;57976;48.174;16.370;2022-12-18T10:40:09;29.50;;;11.90;;
70487;SDS011;57976;48.174;16.370;2022-12-18T10:42:23;30.60;;;11.90;;
70487;SDS011;57976;48.174;16.370;2022-12-18T10:44:26;27.60;;;11.70;;
70487;SDS011;57976;48.174;16.370;2022-12-18T10:46:28;28.80;;;12.00;;
70487;SDS011;57976;48.174;16.370;2022-12-18T10:48:33;29.70;;;12.10;;
70487;SDS011;57976;48.174;16.370;2022-12-18T10:50:38;31.30;;;12.40;;
70487;SDS011;57976;48.174;16.370;2022-12-18T10:53:01;30.40;;;11.70;;
70487;SDS011;57976;48.174;16.370;2022-12-18T10:55:13;26.30;;;10.40;;
70487;SDS011;57976;48.174;16.370;2022-12-18T10:57:29;31.10;;;12.70;;
70487;SDS011;57976;48.174;16.370;2022-12-18T10:59:36;31.60;;;12.10;;
70487;SDS011;57976;48.174;16.370;2022-12-18T11:01:53;31.30;;;12.00;;
70487;SDS011;57976;48.174;16.370;2022-12-18T11:04:02;28.40;;;11.60;;
70487;SDS011;57976;48.174;16.370;2022-12-18T11:06:12;29.00;;;11.40;;
70487;SDS011;57976;48.174;16.370;2022-12-18T11:08:20;30.10;;;12.00;;
70487;SDS011;57976;48.174;16.370;2022-12-18T11:10:25;29.10;;;12.10;;
70487;SDS011;57976;48.174;16.370;2022-12-18T11:12:30;29.50;;;11.70;;
70487;SDS011;57976;48.174;16.370;2022-12-18T11:14:34;30.00;;;11.80;;
70487;SDS011;57976;48.174;16.370;2022-12-18T11:16:49;26.10;;;10.40;;
70487;SDS011;57976;48.174;16.370;2022-12-18T11:19:17;28.20;;;11.10;;
70487;SDS011;57976;48.174;16.370;2022-12-18T11:21:25;29.00;;;11.80;;
70487;SDS011;57976;48.174;16.370;2022-12-18T11:23:28;29.80;;;11.80;;
70487;SDS011;57976;48.174;16.370;2022-12-18T11:25:31;29.70;;;11.30;;
70487;SDS011;57976;48.174;16.370;2022-12-18T11:27:36;25.40;;;9.50;;
70487;SDS011;57976;48.174;16.370;2022-12-18T11:29:41;31.70;;;13.10;;
70487;SDS011;57976;48.174;16.370;2022-12-18T11:31:48;24.10;;;9.70;;
70487;SDS011;57976;48.174;16.370;2022-12-18T11:33:52;29.10;;;12.20;;
70487;SDS011;57976;48.174;16.370;2022-12-18T11:36:20;30.50;;;12.00;;
70487;SDS011;57976;48.174;16.370;2022-12-18T11:38:26;30.50;;;12.90;;
70487;SDS011;57976;48.174;16.370;2022-12-18T11:40:35;31.00;;;13.10;;
70487;SDS011;57976;48.174;16.370;2022-12-18T11:42:44;30.50;;;13.00;;
70487;SDS011;57976;48.174;16.370;2022-12-18T11:44:50;31.80;;;13.40;;
70487;SDS011;57976;48.174;16.370;2022-12-18T11:46:56;32.90;;;13.70;;
70487;SDS011;57976;48.174;16.370;2022-12-18T11:49:06;32.50;;;13.60;;
70487;SDS011;57976;48.174;16.370;2022-12-18T11:51:15;38.40;;;15.20;;
70487;SDS011;57976;48.174;16.370;2022-12-18T11:53:28;33.70;;;14.60;;
70487;SDS011;57976;48.174;16.370;2022-12-18T11:55:34;33.80;;;13.80;;
70487;SDS011;57976;48.174;16.370;2022-12-18T11:57:45;28.20;;;11.50;;
70487;SDS011;57976;48.174;16.370;2022-12-18T11:59:59;31.90;;;12.80;;
70487;SDS011;57976;48.174;16.370;2022-12-18T12:02:17;33.50;;;13.50;;
70487;SDS011;57976;48.174;16.370;2022-12-18T12:04:56;32.10;;;13.20;;
70487;SDS011;57976;48.174;16.370;2022-12-18T12:07:25;29.20;;;12.20;;
70487;SDS011;57976;48.174;16.370;2022-12-18T12:09:39;25.80;;;10.50;;
70487;SDS011;57976;48.174;16.370;2022-12-18T12:11:54;32.40;;;12.80;;
70487;SDS011;57976;48.174;16.370;2022-12-18T12:14:09;32.20;;;12.90;;
70487;SDS011;57976;48.174;16.370;2022-12-18T12:16:24;33.60;;;12.70;;